CheckWX is a tool to help pilots better visualize weather data.  It is not intended as a substitute for an official pre-flight weather briefing.

02:01:40 UTC

VOCL TAF
Calicut International Airport
Calicut, India
TAF VOCL 182300Z 1900/1909 08005KT 4000 BR SCT015 BKN080 TEMPO 1900/1903 3000 BR BECMG 1904/1906 26010KT 6000 SCT015 FEW025CB SCT090

Mar-19@
00:00 UTC

Mar-19 @ 00:00 UTC

Mar-19@
04:00 UTC

Mar-19 @ 04:00 UTC

TAF VOCL 182300Z 1900/1909 08005KT 4000 BR SCT015 BKN080
Wind
  • 080° at 5 KTS
Conditions
Mist
Cloud Levels
  • Scattered at 1,500' AGL
  • Broken at 8,000' AGL

Mar-19@
00:00 UTC

Mar-19 @ 00:00 UTC

Mar-19@
03:00 UTC

Mar-19 @ 03:00 UTC

TEMPO 1900/1903 3000 BR

Temporary

Temporary Changes expected for less than half the time period

Conditions
Mist

Mar-19@
04:00 UTC

Mar-19 @ 04:00 UTC

Mar-19@
09:00 UTC

Mar-19 @ 09:00 UTC

BECMG 1904/1906 26010KT 6000 SCT015 FEW025CB SCT090

Becoming

Becoming Conditions expected by Tue, Mar 19, 2019 @ 06:00 UTC

Wind
  • 260° at 10 KTS
Conditions
Mist
Cloud Levels
  • Scattered at 1,500' AGL
  • Few at 2,500' AGL
  • Scattered at 9,000' AGL